sensor_id;sensor_type;location;lat;lon;timestamp;P1;durP1;ratioP1;P2;durP2;ratioP2
85921;SDS011;76459;41.484;22.090;2024-02-21T00:01:38;70.30;;;31.17;;
85921;SDS011;76459;41.484;22.090;2024-02-21T00:04:04;67.47;;;30.40;;
85921;SDS011;76459;41.484;22.090;2024-02-21T00:06:29;62.67;;;29.98;;
85921;SDS011;76459;41.484;22.090;2024-02-21T00:08:55;55.05;;;25.95;;
85921;SDS011;76459;41.484;22.090;2024-02-21T00:11:20;51.50;;;25.65;;
85921;SDS011;76459;41.484;22.090;2024-02-21T00:13:46;53.28;;;24.67;;
85921;SDS011;76459;41.484;22.090;2024-02-21T00:16:11;35.58;;;18.95;;
85921;SDS011;76459;41.484;22.090;2024-02-21T00:18:38;33.85;;;18.95;;
85921;SDS011;76459;41.484;22.090;2024-02-21T00:21:04;33.08;;;19.52;;
85921;SDS011;76459;41.484;22.090;2024-02-21T00:23:29;33.35;;;18.80;;
85921;SDS011;76459;41.484;22.090;2024-02-21T00:25:55;42.03;;;21.95;;
85921;SDS011;76459;41.484;22.090;2024-02-21T00:28:23;39.97;;;21.58;;
85921;SDS011;76459;41.484;22.090;2024-02-21T00:30:48;42.90;;;22.23;;
85921;SDS011;76459;41.484;22.090;2024-02-21T00:33:16;43.42;;;22.63;;
85921;SDS011;76459;41.484;22.090;2024-02-21T00:35:42;37.60;;;20.65;;
85921;SDS011;76459;41.484;22.090;2024-02-21T00:38:07;45.53;;;23.58;;
85921;SDS011;76459;41.484;22.090;2024-02-21T00:40:33;49.40;;;25.88;;
85921;SDS011;76459;41.484;22.090;2024-02-21T00:43:00;51.40;;;25.38;;
85921;SDS011;76459;41.484;22.090;2024-02-21T00:45:25;42.15;;;22.02;;
85921;SDS011;76459;41.484;22.090;2024-02-21T00:47:51;39.70;;;19.00;;
85921;SDS011;76459;41.484;22.090;2024-02-21T00:50:17;35.97;;;17.88;;
85921;SDS011;76459;41.484;22.090;2024-02-21T00:52:43;27.95;;;15.07;;
85921;SDS011;76459;41.484;22.090;2024-02-21T00:55:09;29.45;;;15.75;;
85921;SDS011;76459;41.484;22.090;2024-02-21T00:57:35;35.28;;;17.00;;
85921;SDS011;76459;41.484;22.090;2024-02-21T01:00:02;30.75;;;15.27;;
85921;SDS011;76459;41.484;22.090;2024-02-21T01:02:29;32.50;;;17.50;;
85921;SDS011;76459;41.484;22.090;2024-02-21T01:04:57;35.67;;;17.15;;
85921;SDS011;76459;41.484;22.090;2024-02-21T01:07:23;33.05;;;16.70;;
85921;SDS011;76459;41.484;22.090;2024-02-21T01:09:49;34.92;;;16.85;;
85921;SDS011;76459;41.484;22.090;2024-02-21T01:12:16;24.60;;;14.77;;
85921;SDS011;76459;41.484;22.090;2024-02-21T01:14:42;27.58;;;14.27;;
85921;SDS011;76459;41.484;22.090;2024-02-21T01:17:07;32.42;;;17.83;;
85921;SDS011;76459;41.484;22.090;2024-02-21T01:19:33;34.35;;;17.73;;
85921;SDS011;76459;41.484;22.090;2024-02-21T01:21:59;33.83;;;19.20;;
85921;SDS011;76459;41.484;22.090;2024-02-21T01:24:25;34.60;;;20.83;;
85921;SDS011;76459;41.484;22.090;2024-02-21T01:26:50;54.10;;;24.77;;
85921;SDS011;76459;41.484;22.090;2024-02-21T01:29:16;55.70;;;26.13;;
85921;SDS011;76459;41.484;22.090;2024-02-21T01:31:41;50.90;;;24.13;;
85921;SDS011;76459;41.484;22.090;2024-02-21T01:34:07;36.03;;;20.63;;
85921;SDS011;76459;41.484;22.090;2024-02-21T01:36:33;40.30;;;18.85;;
85921;SDS011;76459;41.484;22.090;2024-02-21T01:38:59;33.38;;;18.80;;
85921;SDS011;76459;41.484;22.090;2024-02-21T01:41:24;32.13;;;17.70;;
85921;SDS011;76459;41.484;22.090;2024-02-21T01:43:50;32.85;;;18.40;;
85921;SDS011;76459;41.484;22.090;2024-02-21T01:46:15;50.13;;;23.98;;
85921;SDS011;76459;41.484;22.090;2024-02-21T01:48:41;44.53;;;22.33;;
85921;SDS011;76459;41.484;22.090;2024-02-21T01:51:07;43.80;;;22.70;;
85921;SDS011;76459;41.484;22.090;2024-02-21T01:53:34;39.35;;;21.73;;
85921;SDS011;76459;41.484;22.090;2024-02-21T01:56:03;35.97;;;18.83;;
85921;SDS011;76459;41.484;22.090;2024-02-21T01:58:31;31.85;;;18.27;;
85921;SDS011;76459;41.484;22.090;2024-02-21T02:00:58;42.60;;;22.48;;
85921;SDS011;76459;41.484;22.090;2024-02-21T02:03:24;41.85;;;21.52;;
85921;SDS011;76459;41.484;22.090;2024-02-21T02:05:50;40.45;;;22.00;;
85921;SDS011;76459;41.484;22.090;2024-02-21T02:08:17;41.15;;;22.73;;
85921;SDS011;76459;41.484;22.090;2024-02-21T02:10:49;38.13;;;20.50;;
85921;SDS011;76459;41.484;22.090;2024-02-21T02:13:15;41.88;;;20.88;;
85921;SDS011;76459;41.484;22.090;2024-02-21T02:15:44;37.08;;;18.88;;
85921;SDS011;76459;41.484;22.090;2024-02-21T02:18:11;29.85;;;16.77;;
85921;SDS011;76459;41.484;22.090;2024-02-21T02:20:38;27.90;;;15.73;;
85921;SDS011;76459;41.484;22.090;2024-02-21T02:23:08;29.92;;;15.75;;
85921;SDS011;76459;41.484;22.090;2024-02-21T02:25:35;29.73;;;15.65;;
85921;SDS011;76459;41.484;22.090;2024-02-21T02:28:02;34.08;;;16.75;;
85921;SDS011;76459;41.484;22.090;2024-02-21T02:30:35;32.63;;;15.73;;
85921;SDS011;76459;41.484;22.090;2024-02-21T02:33:04;34.25;;;15.23;;
85921;SDS011;76459;41.484;22.090;2024-02-21T02:35:30;31.08;;;15.57;;
85921;SDS011;76459;41.484;22.090;2024-02-21T02:37:56;28.42;;;15.93;;
85921;SDS011;76459;41.484;22.090;2024-02-21T02:40:22;28.58;;;14.73;;
85921;SDS011;76459;41.484;22.090;2024-02-21T02:42:48;34.10;;;17.85;;
85921;SDS011;76459;41.484;22.090;2024-02-21T02:45:17;30.58;;;14.90;;
85921;SDS011;76459;41.484;22.090;2024-02-21T02:47:46;25.85;;;14.75;;
85921;SDS011;76459;41.484;22.090;2024-02-21T02:50:12;28.58;;;17.25;;
85921;SDS011;76459;41.484;22.090;2024-02-21T02:52:38;32.17;;;18.40;;
85921;SDS011;76459;41.484;22.090;2024-02-21T02:55:04;37.05;;;18.23;;
85921;SDS011;76459;41.484;22.090;2024-02-21T02:57:31;31.80;;;17.27;;
85921;SDS011;76459;41.484;22.090;2024-02-21T02:59:56;38.25;;;17.80;;
85921;SDS011;76459;41.484;22.090;2024-02-21T03:02:22;35.20;;;17.83;;
85921;SDS011;76459;41.484;22.090;2024-02-21T03:04:48;28.02;;;16.40;;
85921;SDS011;76459;41.484;22.090;2024-02-21T03:07:14;32.13;;;20.08;;
85921;SDS011;76459;41.484;22.090;2024-02-21T03:09:40;32.45;;;18.73;;
85921;SDS011;76459;41.484;22.090;2024-02-21T03:12:08;39.70;;;18.42;;
85921;SDS011;76459;41.484;22.090;2024-02-21T03:14:34;34.80;;;17.80;;
85921;SDS011;76459;41.484;22.090;2024-02-21T03:17:00;35.88;;;18.55;;
85921;SDS011;76459;41.484;22.090;2024-02-21T03:19:26;36.33;;;18.70;;
85921;SDS011;76459;41.484;22.090;2024-02-21T03:21:52;35.38;;;17.85;;
85921;SDS011;76459;41.484;22.090;2024-02-21T03:24:20;31.73;;;16.60;;
85921;SDS011;76459;41.484;22.090;2024-02-21T03:26:46;36.10;;;17.80;;
85921;SDS011;76459;41.484;22.090;2024-02-21T03:29:14;32.10;;;16.35;;
85921;SDS011;76459;41.484;22.090;2024-02-21T03:31:41;32.25;;;17.30;;
85921;SDS011;76459;41.484;22.090;2024-02-21T03:34:07;36.80;;;17.55;;
85921;SDS011;76459;41.484;22.090;2024-02-21T03:36:35;34.58;;;18.05;;
85921;SDS011;76459;41.484;22.090;2024-02-21T03:39:00;31.17;;;16.27;;
85921;SDS011;76459;41.484;22.090;2024-02-21T03:41:26;34.97;;;18.85;;
85921;SDS011;76459;41.484;22.090;2024-02-21T03:43:52;42.83;;;20.35;;
85921;SDS011;76459;41.484;22.090;2024-02-21T03:46:17;37.72;;;21.00;;
85921;SDS011;76459;41.484;22.090;2024-02-21T03:48:43;35.55;;;18.33;;
85921;SDS011;76459;41.484;22.090;2024-02-21T03:51:08;39.17;;;20.08;;
85921;SDS011;76459;41.484;22.090;2024-02-21T03:53:34;36.00;;;19.00;;
85921;SDS011;76459;41.484;22.090;2024-02-21T03:56:02;44.22;;;21.17;;
85921;SDS011;76459;41.484;22.090;2024-02-21T03:58:31;37.42;;;19.90;;
85921;SDS011;76459;41.484;22.090;2024-02-21T04:00:59;35.08;;;18.70;;
85921;SDS011;76459;41.484;22.090;2024-02-21T04:03:30;37.30;;;20.73;;
85921;SDS011;76459;41.484;22.090;2024-02-21T04:05:56;42.63;;;21.75;;
85921;SDS011;76459;41.484;22.090;2024-02-21T04:08:22;37.95;;;22.70;;
85921;SDS011;76459;41.484;22.090;2024-02-21T04:10:48;36.78;;;20.85;;
85921;SDS011;76459;41.484;22.090;2024-02-21T04:13:14;35.72;;;19.70;;
85921;SDS011;76459;41.484;22.090;2024-02-21T04:15:40;38.83;;;21.80;;
85921;SDS011;76459;41.484;22.090;2024-02-21T04:18:05;44.38;;;21.35;;
85921;SDS011;76459;41.484;22.090;2024-02-21T04:20:31;44.10;;;22.52;;
85921;SDS011;76459;41.484;22.090;2024-02-21T04:22:57;32.97;;;18.23;;
85921;SDS011;76459;41.484;22.090;2024-02-21T04:25:23;36.90;;;20.08;;
85921;SDS011;76459;41.484;22.090;2024-02-21T04:27:49;36.78;;;19.33;;
85921;SDS011;76459;41.484;22.090;2024-02-21T04:30:14;34.53;;;20.15;;
85921;SDS011;76459;41.484;22.090;2024-02-21T04:32:40;31.25;;;17.70;;
85921;SDS011;76459;41.484;22.090;2024-02-21T04:35:06;29.58;;;17.92;;
85921;SDS011;76459;41.484;22.090;2024-02-21T04:37:33;27.27;;;15.32;;
85921;SDS011;76459;41.484;22.090;2024-02-21T04:39:58;31.10;;;16.90;;
85921;SDS011;76459;41.484;22.090;2024-02-21T04:42:24;37.65;;;17.10;;
85921;SDS011;76459;41.484;22.090;2024-02-21T04:44:50;28.30;;;15.55;;
85921;SDS011;76459;41.484;22.090;2024-02-21T04:47:15;34.47;;;18.02;;
85921;SDS011;76459;41.484;22.090;2024-02-21T04:49:41;27.75;;;15.20;;
85921;SDS011;76459;41.484;22.090;2024-02-21T04:52:07;30.17;;;16.45;;
85921;SDS011;76459;41.484;22.090;2024-02-21T04:54:32;32.50;;;15.52;;
85921;SDS011;76459;41.484;22.090;2024-02-21T04:57:00;29.63;;;14.93;;
85921;SDS011;76459;41.484;22.090;2024-02-21T04:59:26;23.35;;;17.02;;
85921;SDS011;76459;41.484;22.090;2024-02-21T05:01:51;26.92;;;14.52;;
85921;SDS011;76459;41.484;22.090;2024-02-21T05:04:17;27.00;;;12.90;;
85921;SDS011;76459;41.484;22.090;2024-02-21T05:06:43;27.88;;;14.68;;
85921;SDS011;76459;41.484;22.090;2024-02-21T05:09:08;25.42;;;13.68;;
85921;SDS011;76459;41.484;22.090;2024-02-21T05:11:37;28.83;;;14.15;;
85921;SDS011;76459;41.484;22.090;2024-02-21T05:14:03;27.20;;;14.45;;
85921;SDS011;76459;41.484;22.090;2024-02-21T05:16:29;24.25;;;13.43;;
85921;SDS011;76459;41.484;22.090;2024-02-21T05:18:55;30.95;;;15.63;;
85921;SDS011;76459;41.484;22.090;2024-02-21T05:21:25;38.38;;;19.38;;
85921;SDS011;76459;41.484;22.090;2024-02-21T05:23:51;34.13;;;19.65;;
85921;SDS011;76459;41.484;22.090;2024-02-21T05:26:23;49.03;;;21.17;;
85921;SDS011;76459;41.484;22.090;2024-02-21T05:28:50;41.92;;;22.52;;
85921;SDS011;76459;41.484;22.090;2024-02-21T05:31:16;44.38;;;21.42;;
85921;SDS011;76459;41.484;22.090;2024-02-21T05:33:43;33.65;;;17.83;;
85921;SDS011;76459;41.484;22.090;2024-02-21T05:36:09;45.95;;;18.80;;
85921;SDS011;76459;41.484;22.090;2024-02-21T05:38:35;37.95;;;17.10;;
85921;SDS011;76459;41.484;22.090;2024-02-21T05:41:01;43.60;;;19.48;;
85921;SDS011;76459;41.484;22.090;2024-02-21T05:43:26;38.45;;;22.42;;
85921;SDS011;76459;41.484;22.090;2024-02-21T05:45:52;53.83;;;28.05;;
85921;SDS011;76459;41.484;22.090;2024-02-21T05:48:17;52.75;;;28.17;;
85921;SDS011;76459;41.484;22.090;2024-02-21T05:50:43;52.47;;;27.73;;
85921;SDS011;76459;41.484;22.090;2024-02-21T05:53:09;51.88;;;31.00;;
85921;SDS011;76459;41.484;22.090;2024-02-21T05:55:36;62.50;;;31.75;;
85921;SDS011;76459;41.484;22.090;2024-02-21T05:58:01;56.25;;;28.83;;
85921;SDS011;76459;41.484;22.090;2024-02-21T06:00:27;56.38;;;27.55;;
85921;SDS011;76459;41.484;22.090;2024-02-21T06:02:53;69.50;;;31.05;;
85921;SDS011;76459;41.484;22.090;2024-02-21T06:05:19;80.20;;;35.08;;
85921;SDS011;76459;41.484;22.090;2024-02-21T06:07:44;104.43;;;42.50;;
85921;SDS011;76459;41.484;22.090;2024-02-21T06:10:10;94.38;;;44.88;;
85921;SDS011;76459;41.484;22.090;2024-02-21T06:12:36;136.35;;;66.35;;
85921;SDS011;76459;41.484;22.090;2024-02-21T06:15:02;114.50;;;62.80;;
85921;SDS011;76459;41.484;22.090;2024-02-21T06:17:28;109.60;;;57.45;;
85921;SDS011;76459;41.484;22.090;2024-02-21T06:19:53;93.40;;;49.33;;
85921;SDS011;76459;41.484;22.090;2024-02-21T06:22:19;89.53;;;44.55;;
85921;SDS011;76459;41.484;22.090;2024-02-21T06:24:44;73.90;;;37.72;;
85921;SDS011;76459;41.484;22.090;2024-02-21T06:27:10;75.78;;;38.35;;
85921;SDS011;76459;41.484;22.090;2024-02-21T06:29:36;69.47;;;38.97;;
85921;SDS011;76459;41.484;22.090;2024-02-21T06:32:02;73.57;;;39.25;;
85921;SDS011;76459;41.484;22.090;2024-02-21T06:34:28;70.47;;;37.25;;
85921;SDS011;76459;41.484;22.090;2024-02-21T06:36:55;75.63;;;38.60;;
85921;SDS011;76459;41.484;22.090;2024-02-21T06:39:20;69.40;;;38.17;;
85921;SDS011;76459;41.484;22.090;2024-02-21T06:41:48;76.28;;;39.25;;
85921;SDS011;76459;41.484;22.090;2024-02-21T06:44:16;71.50;;;38.13;;
85921;SDS011;76459;41.484;22.090;2024-02-21T06:46:42;71.13;;;35.65;;
85921;SDS011;76459;41.484;22.090;2024-02-21T06:49:08;69.93;;;36.15;;
85921;SDS011;76459;41.484;22.090;2024-02-21T06:51:33;79.70;;;39.00;;
85921;SDS011;76459;41.484;22.090;2024-02-21T06:53:59;75.43;;;37.80;;
85921;SDS011;76459;41.484;22.090;2024-02-21T06:56:25;71.63;;;36.78;;
85921;SDS011;76459;41.484;22.090;2024-02-21T06:58:57;73.53;;;36.40;;
85921;SDS011;76459;41.484;22.090;2024-02-21T07:01:23;80.07;;;38.20;;
85921;SDS011;76459;41.484;22.090;2024-02-21T07:03:51;75.13;;;38.47;;
85921;SDS011;76459;41.484;22.090;2024-02-21T07:06:17;75.80;;;39.28;;
85921;SDS011;76459;41.484;22.090;2024-02-21T07:08:42;80.55;;;41.53;;
85921;SDS011;76459;41.484;22.090;2024-02-21T07:11:08;77.05;;;43.22;;
85921;SDS011;76459;41.484;22.090;2024-02-21T07:13:33;76.03;;;43.03;;
85921;SDS011;76459;41.484;22.090;2024-02-21T07:15:59;73.85;;;41.95;;
85921;SDS011;76459;41.484;22.090;2024-02-21T07:18:24;76.80;;;43.25;;
85921;SDS011;76459;41.484;22.090;2024-02-21T07:20:50;81.40;;;44.85;;
85921;SDS011;76459;41.484;22.090;2024-02-21T07:23:17;81.35;;;46.25;;
85921;SDS011;76459;41.484;22.090;2024-02-21T07:25:43;88.85;;;44.20;;
85921;SDS011;76459;41.484;22.090;2024-02-21T07:28:09;82.32;;;41.40;;
85921;SDS011;76459;41.484;22.090;2024-02-21T07:30:34;74.35;;;39.40;;
85921;SDS011;76459;41.484;22.090;2024-02-21T07:33:00;74.68;;;35.20;;
85921;SDS011;76459;41.484;22.090;2024-02-21T07:35:26;61.33;;;31.35;;
85921;SDS011;76459;41.484;22.090;2024-02-21T07:37:51;50.80;;;26.27;;
85921;SDS011;76459;41.484;22.090;2024-02-21T07:40:17;35.72;;;20.42;;
85921;SDS011;76459;41.484;22.090;2024-02-21T07:42:43;26.83;;;14.48;;
85921;SDS011;76459;41.484;22.090;2024-02-21T07:45:09;27.60;;;15.70;;
85921;SDS011;76459;41.484;22.090;2024-02-21T07:47:36;32.72;;;20.25;;
85921;SDS011;76459;41.484;22.090;2024-02-21T07:50:05;42.97;;;22.00;;
85921;SDS011;76459;41.484;22.090;2024-02-21T07:52:32;48.03;;;27.48;;
85921;SDS011;76459;41.484;22.090;2024-02-21T07:54:57;40.17;;;22.20;;
85921;SDS011;76459;41.484;22.090;2024-02-21T07:57:23;35.25;;;21.83;;
85921;SDS011;76459;41.484;22.090;2024-02-21T07:59:49;37.70;;;20.15;;
85921;SDS011;76459;41.484;22.090;2024-02-21T08:02:14;39.10;;;21.50;;
85921;SDS011;76459;41.484;22.090;2024-02-21T08:04:40;39.97;;;23.60;;
85921;SDS011;76459;41.484;22.090;2024-02-21T08:07:06;40.60;;;23.08;;
85921;SDS011;76459;41.484;22.090;2024-02-21T08:09:32;40.92;;;22.63;;
85921;SDS011;76459;41.484;22.090;2024-02-21T08:11:58;37.85;;;21.65;;
85921;SDS011;76459;41.484;22.090;2024-02-21T08:14:23;39.70;;;21.05;;
85921;SDS011;76459;41.484;22.090;2024-02-21T08:16:50;41.45;;;21.73;;
85921;SDS011;76459;41.484;22.090;2024-02-21T08:19:18;34.92;;;20.33;;
85921;SDS011;76459;41.484;22.090;2024-02-21T08:21:44;36.90;;;20.83;;
85921;SDS011;76459;41.484;22.090;2024-02-21T08:24:12;39.50;;;22.38;;
85921;SDS011;76459;41.484;22.090;2024-02-21T08:26:43;39.30;;;22.30;;
85921;SDS011;76459;41.484;22.090;2024-02-21T08:29:12;41.10;;;22.83;;
85921;SDS011;76459;41.484;22.090;2024-02-21T08:31:38;36.88;;;21.65;;
85921;SDS011;76459;41.484;22.090;2024-02-21T08:34:04;44.42;;;23.98;;
85921;SDS011;76459;41.484;22.090;2024-02-21T08:36:33;39.08;;;20.92;;
85921;SDS011;76459;41.484;22.090;2024-02-21T08:39:00;36.50;;;21.00;;
85921;SDS011;76459;41.484;22.090;2024-02-21T08:41:29;33.28;;;19.58;;
85921;SDS011;76459;41.484;22.090;2024-02-21T08:43:56;30.17;;;16.52;;
85921;SDS011;76459;41.484;22.090;2024-02-21T08:46:22;29.75;;;16.92;;
85921;SDS011;76459;41.484;22.090;2024-02-21T08:48:51;33.30;;;19.25;;
85921;SDS011;76459;41.484;22.090;2024-02-21T08:51:18;32.75;;;19.15;;
85921;SDS011;76459;41.484;22.090;2024-02-21T08:53:44;37.42;;;18.63;;
85921;SDS011;76459;41.484;22.090;2024-02-21T08:56:10;37.28;;;19.83;;
85921;SDS011;76459;41.484;22.090;2024-02-21T08:58:36;40.78;;;19.60;;
85921;SDS011;76459;41.484;22.090;2024-02-21T09:01:02;39.00;;;19.92;;
85921;SDS011;76459;41.484;22.090;2024-02-21T09:03:33;40.00;;;20.10;;
85921;SDS011;76459;41.484;22.090;2024-02-21T09:06:02;31.40;;;18.15;;
85921;SDS011;76459;41.484;22.090;2024-02-21T09:08:28;32.95;;;17.70;;
85921;SDS011;76459;41.484;22.090;2024-02-21T09:10:53;28.98;;;15.60;;
85921;SDS011;76459;41.484;22.090;2024-02-21T09:13:19;32.38;;;17.67;;
85921;SDS011;76459;41.484;22.090;2024-02-21T09:15:44;30.52;;;18.23;;
85921;SDS011;76459;41.484;22.090;2024-02-21T09:18:10;29.95;;;15.15;;
85921;SDS011;76459;41.484;22.090;2024-02-21T09:20:36;24.83;;;14.98;;
85921;SDS011;76459;41.484;22.090;2024-02-21T09:23:01;23.60;;;14.25;;
85921;SDS011;76459;41.484;22.090;2024-02-21T09:25:27;25.75;;;15.93;;
85921;SDS011;76459;41.484;22.090;2024-02-21T09:27:55;33.65;;;16.00;;
85921;SDS011;76459;41.484;22.090;2024-02-21T09:30:23;27.45;;;16.10;;
85921;SDS011;76459;41.484;22.090;2024-02-21T09:32:49;31.42;;;17.67;;
85921;SDS011;76459;41.484;22.090;2024-02-21T09:35:15;22.77;;;12.68;;
85921;SDS011;76459;41.484;22.090;2024-02-21T09:37:40;24.25;;;14.52;;
85921;SDS011;76459;41.484;22.090;2024-02-21T09:40:07;18.88;;;12.18;;
85921;SDS011;76459;41.484;22.090;2024-02-21T09:45:15;22.90;;;13.40;;
85921;SDS011;76459;41.484;22.090;2024-02-21T09:47:55;20.58;;;11.70;;
85921;SDS011;76459;41.484;22.090;2024-02-21T09:50:38;18.63;;;12.52;;
85921;SDS011;76459;41.484;22.090;2024-02-21T09:53:06;19.50;;;11.82;;
85921;SDS011;76459;41.484;22.090;2024-02-21T09:55:34;20.67;;;11.48;;
85921;SDS011;76459;41.484;22.090;2024-02-21T09:58:03;20.42;;;12.02;;
85921;SDS011;76459;41.484;22.090;2024-02-21T10:00:29;21.48;;;12.50;;
85921;SDS011;76459;41.484;22.090;2024-02-21T10:02:55;19.95;;;11.77;;
85921;SDS011;76459;41.484;22.090;2024-02-21T10:05:21;16.33;;;9.95;;
85921;SDS011;76459;41.484;22.090;2024-02-21T10:07:46;15.90;;;10.48;;
85921;SDS011;76459;41.484;22.090;2024-02-21T10:10:14;19.60;;;11.40;;
85921;SDS011;76459;41.484;22.090;2024-02-21T10:12:50;21.23;;;10.93;;
85921;SDS011;76459;41.484;22.090;2024-02-21T10:15:22;10.85;;;6.75;;
85921;SDS011;76459;41.484;22.090;2024-02-21T10:20:24;11.85;;;7.80;;
85921;SDS011;76459;41.484;22.090;2024-02-21T10:22:59;12.48;;;8.10;;
85921;SDS011;76459;41.484;22.090;2024-02-21T10:25:35;16.05;;;7.82;;
85921;SDS011;76459;41.484;22.090;2024-02-21T10:28:08;11.48;;;8.32;;
85921;SDS011;76459;41.484;22.090;2024-02-21T10:30:37;26.63;;;8.95;;
85921;SDS011;76459;41.484;22.090;2024-02-21T10:33:02;12.52;;;7.60;;
85921;SDS011;76459;41.484;22.090;2024-02-21T10:35:31;16.75;;;8.38;;
85921;SDS011;76459;41.484;22.090;2024-02-21T10:37:58;14.20;;;9.15;;
85921;SDS011;76459;41.484;22.090;2024-02-21T10:40:25;13.55;;;7.97;;
85921;SDS011;76459;41.484;22.090;2024-02-21T10:42:59;15.70;;;6.68;;
85921;SDS011;76459;41.484;22.090;2024-02-21T10:45:34;13.52;;;7.65;;
85921;SDS011;76459;41.484;22.090;2024-02-21T10:48:13;15.63;;;8.55;;
85921;SDS011;76459;41.484;22.090;2024-02-21T10:56:32;13.27;;;8.45;;
85921;SDS011;76459;41.484;22.090;2024-02-21T10:59:04;18.27;;;8.60;;
85921;SDS011;76459;41.484;22.090;2024-02-21T11:01:31;10.52;;;7.25;;
85921;SDS011;76459;41.484;22.090;2024-02-21T11:04:04;8.57;;;6.25;;
85921;SDS011;76459;41.484;22.090;2024-02-21T11:06:32;11.82;;;6.97;;
85921;SDS011;76459;41.484;22.090;2024-02-21T11:09:07;14.20;;;6.97;;
85921;SDS011;76459;41.484;22.090;2024-02-21T11:11:34;15.05;;;7.40;;
85921;SDS011;76459;41.484;22.090;2024-02-21T11:14:08;10.98;;;7.35;;
85921;SDS011;76459;41.484;22.090;2024-02-21T11:16:38;9.98;;;6.00;;
85921;SDS011;76459;41.484;22.090;2024-02-21T11:19:09;13.63;;;7.50;;
85921;SDS011;76459;41.484;22.090;2024-02-21T11:21:44;14.98;;;8.82;;
85921;SDS011;76459;41.484;22.090;2024-02-21T11:24:10;27.10;;;10.35;;
85921;SDS011;76459;41.484;22.090;2024-02-21T11:26:36;16.10;;;7.88;;
85921;SDS011;76459;41.484;22.090;2024-02-21T11:29:03;11.98;;;6.57;;
85921;SDS011;76459;41.484;22.090;2024-02-21T11:31:39;12.07;;;6.32;;
85921;SDS011;76459;41.484;22.090;2024-02-21T11:34:12;11.05;;;6.03;;
85921;SDS011;76459;41.484;22.090;2024-02-21T11:36:47;11.48;;;6.28;;
85921;SDS011;76459;41.484;22.090;2024-02-21T11:39:23;8.70;;;5.55;;
85921;SDS011;76459;41.484;22.090;2024-02-21T11:42:03;7.45;;;4.82;;
85921;SDS011;76459;41.484;22.090;2024-02-21T11:44:31;9.40;;;6.00;;
85921;SDS011;76459;41.484;22.090;2024-02-21T11:46:57;9.45;;;5.97;;
85921;SDS011;76459;41.484;22.090;2024-02-21T11:49:28;9.68;;;5.00;;
85921;SDS011;76459;41.484;22.090;2024-02-21T11:52:00;10.63;;;5.85;;
85921;SDS011;76459;41.484;22.090;2024-02-21T11:54:29;15.80;;;6.30;;
85921;SDS011;76459;41.484;22.090;2024-02-21T11:56:55;7.22;;;5.07;;
85921;SDS011;76459;41.484;22.090;2024-02-21T11:59:21;12.45;;;5.13;;
85921;SDS011;76459;41.484;22.090;2024-02-21T12:01:50;7.63;;;5.57;;
85921;SDS011;76459;41.484;22.090;2024-02-21T12:04:21;6.93;;;4.05;;
85921;SDS011;76459;41.484;22.090;2024-02-21T12:06:49;7.20;;;4.45;;
85921;SDS011;76459;41.484;22.090;2024-02-21T12:09:15;9.40;;;4.53;;
85921;SDS011;76459;41.484;22.090;2024-02-21T12:11:42;7.82;;;5.05;;
85921;SDS011;76459;41.484;22.090;2024-02-21T12:14:09;13.15;;;8.00;;
85921;SDS011;76459;41.484;22.090;2024-02-21T12:16:35;14.20;;;6.70;;
85921;SDS011;76459;41.484;22.090;2024-02-21T12:19:06;12.90;;;6.00;;
85921;SDS011;76459;41.484;22.090;2024-02-21T12:21:33;11.10;;;6.05;;
85921;SDS011;76459;41.484;22.090;2024-02-21T12:24:12;5.68;;;3.38;;
85921;SDS011;76459;41.484;22.090;2024-02-21T12:26:42;7.25;;;3.72;;
85921;SDS011;76459;41.484;22.090;2024-02-21T12:29:08;10.80;;;3.90;;
85921;SDS011;76459;41.484;22.090;2024-02-21T12:31:37;8.77;;;5.30;;
85921;SDS011;76459;41.484;22.090;2024-02-21T12:34:03;12.20;;;6.05;;
85921;SDS011;76459;41.484;22.090;2024-02-21T12:36:29;9.57;;;6.00;;
85921;SDS011;76459;41.484;22.090;2024-02-21T12:38:58;7.68;;;4.43;;
85921;SDS011;76459;41.484;22.090;2024-02-21T12:41:25;4.47;;;3.08;;
85921;SDS011;76459;41.484;22.090;2024-02-21T12:43:52;4.40;;;2.67;;
85921;SDS011;76459;41.484;22.090;2024-02-21T12:46:18;5.13;;;3.10;;
85921;SDS011;76459;41.484;22.090;2024-02-21T12:48:44;8.35;;;3.97;;
85921;SDS011;76459;41.484;22.090;2024-02-21T12:51:10;11.93;;;4.07;;
85921;SDS011;76459;41.484;22.090;2024-02-21T12:53:35;7.57;;;3.90;;
85921;SDS011;76459;41.484;22.090;2024-02-21T12:56:01;8.82;;;3.90;;
85921;SDS011;76459;41.484;22.090;2024-02-21T12:58:27;5.22;;;2.95;;
85921;SDS011;76459;41.484;22.090;2024-02-21T13:00:56;8.35;;;4.07;;
85921;SDS011;76459;41.484;22.090;2024-02-21T13:03:22;9.18;;;5.03;;
85921;SDS011;76459;41.484;22.090;2024-02-21T13:05:47;7.57;;;4.50;;
85921;SDS011;76459;41.484;22.090;2024-02-21T13:08:13;5.03;;;3.67;;
85921;SDS011;76459;41.484;22.090;2024-02-21T13:10:38;11.13;;;4.82;;
85921;SDS011;76459;41.484;22.090;2024-02-21T13:13:04;10.18;;;4.55;;
85921;SDS011;76459;41.484;22.090;2024-02-21T13:15:30;8.23;;;4.30;;
85921;SDS011;76459;41.484;22.090;2024-02-21T13:17:56;5.72;;;3.55;;
85921;SDS011;76459;41.484;22.090;2024-02-21T13:20:25;5.55;;;3.10;;
85921;SDS011;76459;41.484;22.090;2024-02-21T13:22:52;8.70;;;4.70;;
85921;SDS011;76459;41.484;22.090;2024-02-21T13:25:17;10.60;;;6.75;;
85921;SDS011;76459;41.484;22.090;2024-02-21T13:27:46;13.38;;;10.52;;
85921;SDS011;76459;41.484;22.090;2024-02-21T13:30:13;24.52;;;7.45;;
85921;SDS011;76459;41.484;22.090;2024-02-21T13:32:41;12.07;;;6.70;;
85921;SDS011;76459;41.484;22.090;2024-02-21T13:35:08;15.48;;;7.93;;
85921;SDS011;76459;41.484;22.090;2024-02-21T13:37:37;17.83;;;10.45;;
85921;SDS011;76459;41.484;22.090;2024-02-21T13:40:03;46.85;;;22.02;;
85921;SDS011;76459;41.484;22.090;2024-02-21T13:42:29;25.25;;;16.23;;
85921;SDS011;76459;41.484;22.090;2024-02-21T13:44:55;19.20;;;9.30;;
85921;SDS011;76459;41.484;22.090;2024-02-21T13:47:21;18.08;;;9.07;;
85921;SDS011;76459;41.484;22.090;2024-02-21T13:49:46;23.25;;;12.90;;
85921;SDS011;76459;41.484;22.090;2024-02-21T13:52:12;23.45;;;13.75;;
85921;SDS011;76459;41.484;22.090;2024-02-21T13:54:39;17.20;;;10.07;;
85921;SDS011;76459;41.484;22.090;2024-02-21T13:57:05;12.77;;;6.20;;
85921;SDS011;76459;41.484;22.090;2024-02-21T13:59:31;18.42;;;7.90;;
85921;SDS011;76459;41.484;22.090;2024-02-21T14:01:58;12.25;;;6.07;;
85921;SDS011;76459;41.484;22.090;2024-02-21T14:04:24;15.13;;;9.35;;
85921;SDS011;76459;41.484;22.090;2024-02-21T14:06:50;15.00;;;8.60;;
85921;SDS011;76459;41.484;22.090;2024-02-21T14:09:16;15.20;;;8.35;;
85921;SDS011;76459;41.484;22.090;2024-02-21T14:11:41;22.00;;;9.75;;
85921;SDS011;76459;41.484;22.090;2024-02-21T14:14:07;21.42;;;9.85;;
85921;SDS011;76459;41.484;22.090;2024-02-21T14:16:32;18.58;;;7.25;;
85921;SDS011;76459;41.484;22.090;2024-02-21T14:18:59;14.60;;;6.97;;
85921;SDS011;76459;41.484;22.090;2024-02-21T14:21:24;21.08;;;8.38;;
85921;SDS011;76459;41.484;22.090;2024-02-21T14:23:51;14.10;;;7.47;;